createdAt,value
2019-06-01T00:00:31.897Z,9.93
2019-06-01T00:03:00.482Z,10.18
2019-06-01T00:05:29.257Z,12.07
2019-06-01T00:07:58.740Z,11.38
2019-06-01T00:10:27.363Z,11.70
2019-06-01T00:12:56.055Z,10.48
2019-06-01T00:15:24.650Z,11.20
2019-06-01T00:17:54.136Z,13.32
2019-06-01T00:20:22.788Z,12.07
2019-06-01T00:22:51.780Z,13.38
2019-06-01T00:25:20.417Z,10.63
2019-06-01T00:27:49.110Z,12.80
2019-06-01T00:30:26.572Z,12.18
2019-06-01T00:32:49.359Z,10.67
2019-06-01T00:35:18.055Z,13.48
2019-06-01T00:37:47.603Z,10.03
2019-06-01T00:40:16.319Z,12.07
2019-06-01T00:42:46.023Z,12.28
2019-06-01T00:45:14.933Z,9.93
2019-06-01T00:47:44.752Z,11.08
2019-06-01T00:50:13.575Z,13.95
2019-06-01T00:52:42.966Z,11.68
2019-06-01T00:55:11.720Z,11.33
2019-06-01T00:57:41.225Z,12.47
2019-06-01T01:00:10.037Z,12.85
2019-06-01T01:02:39.653Z,12.80
2019-06-01T01:05:12.311Z,11.22
2019-06-01T01:07:41.849Z,13.93
2019-06-01T01:10:10.830Z,11.15
2019-06-01T01:12:58.369Z,12.68
2019-06-01T01:15:27.067Z,11.40
2019-06-01T01:17:57.323Z,10.78
2019-06-01T01:20:25.989Z,10.50
2019-06-01T01:22:54.921Z,12.07
2019-06-01T01:25:23.683Z,12.68
2019-06-01T01:27:53.299Z,12.00
2019-06-01T01:30:22.258Z,15.08
2019-06-01T01:32:51.766Z,12.40
2019-06-01T01:35:20.714Z,9.83
2019-06-01T01:37:49.998Z,11.10
2019-06-01T01:40:18.924Z,12.28
2019-06-01T01:42:48.679Z,12.78
2019-06-01T01:45:18.471Z,9.93
2019-06-01T01:47:49.427Z,9.33
2019-06-01T01:50:18.463Z,8.75
2019-06-01T01:52:47.029Z,11.63
2019-06-01T01:55:16.236Z,10.43
2019-06-01T01:57:44.898Z,9.33
2019-06-01T02:00:14.055Z,10.18
2019-06-01T02:02:42.726Z,12.90
2019-06-01T02:05:11.550Z,9.10
2019-06-01T02:07:40.141Z,11.73
2019-06-01T02:10:10.277Z,16.25
2019-06-01T02:12:38.846Z,14.40
2019-06-01T02:15:08.573Z,12.07
2019-06-01T02:17:37.168Z,10.20
2019-06-01T02:20:06.171Z,10.98
2019-06-01T02:22:34.790Z,9.15
2019-06-01T02:25:06.423Z,10.75
2019-06-01T02:30:05.642Z,11.53
2019-06-01T02:32:33.626Z,9.95
2019-06-01T02:35:02.686Z,11.95
2019-06-01T02:37:31.339Z,10.28
2019-06-01T02:40:00.964Z,10.82
2019-06-01T02:42:29.646Z,19.30
2019-06-01T02:44:59.200Z,19.02
2019-06-01T02:47:28.037Z,23.27
2019-06-01T02:49:57.645Z,33.38
2019-06-01T02:52:26.600Z,39.13
2019-06-01T02:54:56.180Z,26.75
2019-06-01T02:57:24.773Z,30.20
2019-06-01T02:59:53.484Z,23.02
2019-06-01T03:02:22.192Z,23.47
2019-06-01T03:04:50.956Z,22.67
2019-06-01T03:07:20.087Z,20.40
2019-06-01T03:09:48.952Z,16.37
2019-06-01T03:12:19.516Z,19.02
2019-06-01T03:14:51.273Z,16.37
2019-06-01T03:17:22.950Z,15.90
2019-06-01T03:19:54.471Z,16.27
2019-06-01T03:22:24.135Z,12.47
2019-06-01T03:24:55.815Z,15.48
2019-06-01T03:27:25.965Z,15.95
2019-06-01T03:29:58.199Z,11.80
2019-06-01T03:32:36.313Z,12.20
2019-06-01T03:34:57.093Z,13.20
2019-06-01T03:37:25.868Z,11.40
2019-06-01T03:39:54.576Z,11.35
2019-06-01T03:42:23.131Z,11.18
2019-06-01T03:44:52.677Z,13.35
2019-06-01T03:47:23.260Z,11.48
2019-06-01T03:49:51.854Z,13.70
2019-06-01T03:52:20.461Z,13.53
2019-06-01T03:54:49.094Z,13.85
2019-06-01T03:57:17.706Z,19.07
2019-06-01T03:59:46.422Z,13.25
2019-06-01T04:02:15.017Z,12.10
2019-06-01T04:04:43.628Z,12.75
2019-06-01T04:07:12.527Z,13.05
2019-06-01T04:09:41.281Z,12.45
2019-06-01T04:12:09.986Z,12.75
2019-06-01T04:14:38.608Z,10.58
2019-06-01T04:17:08.147Z,11.43
2019-06-01T04:19:36.846Z,9.85
2019-06-01T04:22:08.002Z,8.23
2019-06-01T04:24:38.446Z,9.60
2019-06-01T04:27:08.226Z,6.50
2019-06-01T04:29:36.889Z,10.60
2019-06-01T04:32:06.561Z,9.05
2019-06-01T04:34:35.775Z,6.33
2019-06-01T04:37:05.169Z,11.38
2019-06-01T04:39:33.884Z,7.80
2019-06-01T04:42:03.468Z,8.78
2019-06-01T04:44:32.096Z,8.60
2019-06-01T04:47:00.670Z,9.13
2019-06-01T04:49:29.457Z,8.88
2019-06-01T04:51:58.099Z,6.87
2019-06-01T04:54:26.789Z,7.15
2019-06-01T04:56:55.312Z,7.90
2019-06-01T04:59:25.830Z,7.33
2019-06-01T05:01:54.475Z,8.85
2019-06-01T05:04:23.130Z,8.23
2019-06-01T05:06:51.734Z,9.70
2019-06-01T05:09:21.314Z,7.78
2019-06-01T05:11:49.874Z,9.48
2019-06-01T05:14:19.424Z,7.72
2019-06-01T05:20:14.684Z,6.83
2019-06-01T05:22:21.323Z,10.30
2019-06-01T05:24:56.917Z,8.20
2019-06-01T05:27:35.040Z,8.98
2019-06-01T05:29:57.633Z,8.28
2019-06-01T05:32:29.036Z,9.85
2019-06-01T05:35:07.588Z,8.20
2019-06-01T05:37:42.118Z,10.15
2019-06-01T05:40:17.233Z,11.18
2019-06-01T05:42:49.104Z,7.10
2019-06-01T05:45:19.295Z,6.25
2019-06-01T05:47:53.577Z,5.70
2019-06-01T05:50:27.956Z,7.35
2019-06-01T05:53:02.461Z,7.60
2019-06-01T05:55:36.993Z,7.85
2019-06-01T05:58:09.213Z,6.17
2019-06-01T06:00:41.550Z,5.92
2019-06-01T06:03:12.839Z,5.25
2019-06-01T06:05:41.538Z,7.17
2019-06-01T06:08:20.113Z,6.33
2019-06-01T06:10:54.605Z,5.08
2019-06-01T06:13:26.943Z,7.15
2019-06-01T06:16:02.340Z,5.45
2019-06-01T06:18:36.873Z,7.53
2019-06-01T06:21:08.588Z,6.35
2019-06-01T06:23:40.306Z,5.12
2019-06-01T06:26:22.908Z,7.20
2019-06-01T06:28:58.750Z,6.47
2019-06-01T06:31:30.353Z,5.55
2019-06-01T06:34:10.883Z,5.58
2019-06-01T06:36:45.310Z,6.78
2019-06-01T06:39:20.095Z,4.80
2019-06-01T06:41:54.398Z,7.12
2019-06-01T06:44:25.005Z,4.90
2019-06-01T06:47:06.623Z,7.53
2019-06-01T06:49:35.243Z,5.25
2019-06-01T06:52:05.951Z,6.08
2019-06-01T06:54:55.925Z,6.33
2019-06-01T06:57:24.573Z,5.22
2019-06-01T06:59:53.290Z,5.10
2019-06-01T07:02:24.990Z,6.33
2019-06-01T07:04:53.677Z,8.35
2019-06-01T07:07:24.324Z,5.87
2019-06-01T07:09:56.152Z,4.75
2019-06-01T07:12:25.372Z,7.90
2019-06-01T07:14:54.100Z,6.10
2019-06-01T07:17:29.968Z,6.92
2019-06-01T07:19:59.490Z,5.67
2019-06-01T07:22:30.039Z,7.55
2019-06-01T07:25:06.327Z,5.15
2019-06-01T07:27:40.586Z,6.25
2019-06-01T07:30:09.290Z,8.98
2019-06-01T07:32:40.954Z,5.45
2019-06-01T07:35:10.626Z,6.65
2019-06-01T07:37:42.245Z,5.83
2019-06-01T07:40:13.657Z,5.08
2019-06-01T07:42:42.122Z,5.20
2019-06-01T07:45:10.944Z,8.55
2019-06-01T07:47:45.514Z,7.05
2019-06-01T07:50:15.710Z,5.42
2019-06-01T07:52:47.592Z,4.53
2019-06-01T07:55:23.610Z,4.12
2019-06-01T07:58:11.281Z,4.53
2019-06-01T08:00:45.657Z,4.20
2019-06-01T08:03:30.693Z,6.20
2019-06-01T08:06:03.411Z,6.33
2019-06-01T08:08:32.070Z,4.28
2019-06-01T08:11:07.349Z,6.58
2019-06-01T08:13:39.199Z,6.97
2019-06-01T08:16:07.767Z,5.33
2019-06-01T08:18:37.555Z,5.35
2019-06-01T08:21:12.143Z,4.20
2019-06-01T08:23:43.659Z,5.85
2019-06-01T08:26:20.042Z,5.47
2019-06-01T08:28:55.704Z,6.30
2019-06-01T08:31:26.548Z,5.50
2019-06-01T08:33:57.246Z,3.87
2019-06-01T08:36:31.713Z,4.75
2019-06-01T08:39:07.087Z,7.28
2019-06-01T08:41:36.097Z,4.30
2019-06-01T08:44:05.441Z,7.10
2019-06-01T08:46:39.821Z,4.22
2019-06-01T08:49:09.499Z,5.58
2019-06-01T08:51:38.122Z,6.83
2019-06-01T08:54:06.895Z,4.80
2019-06-01T08:56:36.384Z,5.33
2019-06-01T08:59:05.758Z,5.90
2019-06-01T09:01:35.016Z,3.45
2019-06-01T09:04:05.159Z,4.95
2019-06-01T09:06:39.020Z,5.10
2019-06-01T09:09:11.737Z,6.15
2019-06-01T09:11:38.929Z,4.58
2019-06-01T09:14:19.895Z,3.27
2019-06-01T09:16:48.500Z,4.75
2019-06-01T09:19:17.089Z,6.85
2019-06-01T09:21:45.745Z,4.80
2019-06-01T09:24:26.135Z,5.85
2019-06-01T09:27:02.269Z,3.60
2019-06-01T09:29:32.376Z,3.80
2019-06-01T09:32:02.431Z,4.87
2019-06-01T09:34:32.953Z,4.45
2019-06-01T09:37:01.567Z,4.53
2019-06-01T09:39:33.252Z,6.87
2019-06-01T09:42:02.766Z,6.65
2019-06-01T09:44:35.223Z,5.03
2019-06-01T09:47:03.924Z,6.65
2019-06-01T09:49:38.220Z,6.22
2019-06-01T09:52:06.860Z,4.72
2019-06-01T09:54:36.396Z,5.55
2019-06-01T09:57:05.418Z,4.72
2019-06-01T09:59:34.135Z,7.22
2019-06-01T10:02:02.777Z,7.55
2019-06-01T10:04:34.501Z,8.10
2019-06-01T10:07:04.438Z,7.53
2019-06-01T10:09:39.224Z,8.38
2019-06-01T10:12:11.897Z,6.30
2019-06-01T10:14:43.593Z,10.65
2019-06-01T10:17:13.670Z,5.40
2019-06-01T10:19:43.028Z,4.87
2019-06-01T10:22:43.548Z,6.97
2019-06-01T10:25:13.630Z,5.10
2019-06-01T10:27:43.881Z,8.30
2019-06-01T10:30:18.863Z,10.63
2019-06-01T10:32:53.058Z,8.53
2019-06-01T10:35:32.777Z,8.60
2019-06-01T10:38:42.281Z,7.03
2019-06-01T10:41:10.979Z,6.87
2019-06-01T10:43:42.785Z,5.87
2019-06-01T10:46:11.613Z,6.95
2019-06-01T10:48:43.146Z,7.10
2019-06-01T10:51:18.142Z,5.20
2019-06-01T10:53:46.864Z,6.15
2019-06-01T10:56:17.546Z,5.90
2019-06-01T12:10:41.051Z,5.72
2019-06-01T12:13:38.088Z,6.50
2019-06-01T12:16:40.426Z,6.17
2019-06-01T12:19:16.802Z,12.98
2019-06-01T12:21:56.901Z,6.03
2019-06-01T12:28:16.909Z,4.95
2019-06-01T12:30:48.652Z,13.28
2019-06-01T12:33:24.408Z,4.83
2019-06-01T12:35:51.631Z,3.98
2019-06-01T12:38:37.900Z,3.87
2019-06-01T12:48:29.342Z,8.13
2019-06-01T12:50:37.184Z,3.95
2019-06-01T12:53:24.182Z,4.30
2019-06-01T12:59:05.258Z,4.75
2019-06-01T13:05:07.894Z,4.08
2019-06-01T13:14:04.417Z,5.08
2019-06-01T13:17:05.925Z,4.72
2019-06-01T13:19:24.471Z,6.67
2019-06-01T13:21:59.340Z,5.10
2019-06-01T13:24:38.499Z,6.35
2019-06-01T13:27:14.029Z,6.40
2019-06-01T13:29:57.725Z,3.80
2019-06-01T13:32:26.526Z,6.37
2019-06-01T13:35:08.167Z,4.53
2019-06-01T13:58:40.604Z,4.05
2019-06-01T14:01:12.130Z,5.62
2019-06-01T14:03:52.242Z,3.92
2019-06-01T14:08:58.679Z,4.50
2019-06-01T14:12:10.960Z,3.83
2019-06-01T14:15:03.314Z,6.05
2019-06-01T14:17:33.044Z,3.98
2019-06-01T14:20:47.574Z,4.13
2019-06-01T14:23:19.118Z,5.53
2019-06-01T14:29:31.581Z,3.80
2019-06-01T14:32:15.491Z,4.80
2019-06-01T14:34:48.505Z,35.70
2019-06-01T14:40:59.228Z,4.58
2019-06-01T14:43:27.924Z,4.10
2019-06-01T14:46:12.739Z,3.87
2019-06-01T14:48:47.398Z,3.67
2019-06-01T14:51:22.183Z,4.78
2019-06-01T14:53:51.641Z,3.62
2019-06-01T14:56:23.716Z,8.60
2019-06-01T14:59:13.460Z,6.10
2019-06-01T15:01:45.085Z,4.70
2019-06-01T15:04:32.147Z,2.95
2019-06-01T15:14:11.230Z,11.00
2019-06-01T15:16:42.675Z,3.05
2019-06-01T15:19:14.159Z,4.08
2019-06-01T15:22:36.767Z,5.30
2019-06-01T15:29:05.273Z,3.30
2019-06-01T15:31:37.056Z,6.15
2019-06-01T15:34:16.764Z,5.00
2019-06-01T15:36:45.481Z,4.90
2019-06-01T15:39:24.829Z,3.10
2019-06-01T15:41:51.130Z,2.95
2019-06-01T15:44:25.923Z,3.30
2019-06-01T15:47:37.108Z,4.12
2019-06-01T15:53:34.496Z,6.62
2019-06-01T15:56:58.516Z,4.35
2019-06-01T15:59:33.092Z,6.22
2019-06-01T16:05:12.476Z,4.87
2019-06-01T16:07:48.429Z,3.20
2019-06-01T16:16:38.073Z,4.50
2019-06-01T16:19:09.851Z,5.42
2019-06-01T16:26:05.747Z,4.40
2019-06-01T16:28:27.079Z,6.12
2019-06-01T16:31:37.313Z,4.47
2019-06-01T16:34:34.251Z,5.85
2019-06-01T16:37:27.660Z,4.87
2019-06-01T16:40:13.590Z,6.80
2019-06-01T16:42:52.462Z,3.98
2019-06-01T16:45:24.266Z,2.80
2019-06-01T16:51:56.625Z,3.67
2019-06-01T16:54:31.261Z,4.33
2019-06-01T17:00:27.627Z,4.60
2019-06-01T17:03:17.682Z,4.90
2019-06-01T17:06:11.938Z,6.45
2019-06-01T17:08:44.003Z,6.40
2019-06-01T17:12:08.444Z,5.28
2019-06-01T17:14:37.186Z,5.25
2019-06-01T17:17:25.364Z,3.17
2019-06-01T17:23:27.347Z,6.17
2019-06-01T17:25:59.830Z,4.42
2019-06-01T17:28:34.583Z,16.20
2019-06-01T17:34:32.692Z,13.68
2019-06-01T17:37:04.935Z,9.70
2019-06-01T17:43:25.976Z,3.37
2019-06-01T17:45:57.599Z,3.03
2019-06-01T17:48:29.459Z,4.42
2019-06-01T17:51:00.364Z,5.78
2019-06-01T17:53:29.036Z,3.42
2019-06-01T17:56:01.858Z,6.40
2019-06-01T17:58:31.533Z,5.80
2019-06-01T18:01:27.505Z,5.10
2019-06-01T18:04:05.885Z,6.28
2019-06-01T18:06:37.653Z,6.28
2019-06-01T18:09:20.247Z,4.25
2019-06-01T18:11:49.874Z,3.17
2019-06-01T18:14:27.510Z,4.67
2019-06-01T18:16:58.248Z,5.78
2019-06-01T18:22:13.523Z,4.67
2019-06-01T18:24:44.782Z,4.35
2019-06-01T18:27:16.171Z,5.53
2019-06-01T18:29:49.582Z,5.10
2019-06-01T18:32:20.977Z,4.37
2019-06-01T18:35:09.367Z,4.03
2019-06-01T18:37:42.030Z,6.85
2019-06-01T18:40:15.011Z,6.28
2019-06-01T18:43:07.897Z,4.75
2019-06-01T18:45:52.671Z,4.62
2019-06-01T18:48:27.726Z,5.30
2019-06-01T18:50:59.445Z,6.75
2019-06-01T18:53:39.503Z,4.58
2019-06-01T18:56:12.186Z,6.03
2019-06-01T18:58:42.377Z,4.10
2019-06-01T19:01:20.003Z,5.05
2019-06-01T19:03:48.842Z,7.15
2019-06-01T19:06:17.930Z,5.15
2019-06-01T19:08:49.344Z,6.95
2019-06-01T19:11:35.098Z,9.38
2019-06-01T19:13:50.605Z,6.42
2019-06-01T19:19:00.154Z,5.97
2019-06-01T19:21:47.288Z,7.70
2019-06-01T19:25:00.530Z,11.20
2019-06-01T19:27:32.759Z,12.70
2019-06-01T19:30:08.848Z,9.65
2019-06-01T19:33:10.838Z,7.95
2019-06-01T19:36:00.981Z,13.75
2019-06-01T19:38:57.921Z,9.83
2019-06-01T19:41:51.625Z,6.28
2019-06-01T19:44:44.496Z,5.83
2019-06-01T19:47:20.640Z,12.68
2019-06-01T19:49:54.365Z,9.08
2019-06-01T19:52:26.014Z,8.38
2019-06-01T19:58:35.498Z,8.10
2019-06-01T20:01:36.664Z,8.45
2019-06-01T20:04:43.424Z,7.03
2019-06-01T20:07:15.206Z,9.10
2019-06-01T20:10:38.938Z,10.93
2019-06-01T20:13:13.777Z,7.60
2019-06-01T20:15:51.334Z,8.85
2019-06-01T20:18:56.560Z,8.73
2019-06-01T20:21:43.858Z,7.47
2019-06-01T20:24:21.573Z,8.08
2019-06-01T20:27:07.170Z,6.97
2019-06-01T20:29:50.825Z,6.67
2019-06-01T20:32:30.383Z,8.18
2019-06-01T20:35:01.095Z,7.80
2019-06-01T20:37:56.165Z,14.40
2019-06-01T20:40:28.982Z,11.40
2019-06-01T20:43:22.922Z,14.87
2019-06-01T20:46:33.781Z,10.32
2019-06-01T20:49:26.453Z,11.97
2019-06-01T20:52:03.318Z,16.05
2019-06-01T20:54:47.191Z,13.05
2019-06-01T20:57:19.641Z,13.43
2019-06-01T20:59:48.283Z,13.80
2019-06-01T21:02:24.054Z,14.85
2019-06-01T21:04:52.951Z,13.15
2019-06-01T21:07:22.024Z,13.13
2019-06-01T21:10:08.263Z,13.10
2019-06-01T21:12:45.669Z,12.55
2019-06-01T21:15:17.341Z,10.55
2019-06-01T21:17:51.864Z,13.95
2019-06-01T21:20:31.336Z,14.00
2019-06-01T21:23:01.315Z,14.07
2019-06-01T21:25:38.848Z,14.60
2019-06-01T21:28:14.864Z,14.13
2019-06-01T21:30:49.321Z,14.13
2019-06-01T21:33:26.644Z,14.25
2019-06-01T21:35:59.069Z,12.55
2019-06-01T21:38:32.240Z,11.83
2019-06-01T21:41:06.954Z,14.65
2019-06-01T21:43:41.317Z,13.83
2019-06-01T21:49:52.110Z,14.85
2019-06-01T21:56:01.561Z,10.35
2019-06-01T21:59:10.830Z,13.83
2019-06-01T22:01:42.579Z,11.45
2019-06-01T22:04:14.024Z,12.78
2019-06-01T22:06:54.656Z,12.68
2019-06-01T22:09:23.449Z,9.98
2019-06-01T22:12:07.753Z,11.03
2019-06-01T22:14:39.009Z,10.45
2019-06-01T22:17:09.396Z,11.33
2019-06-01T22:23:28.304Z,14.10
2019-06-01T22:26:28.284Z,10.70
2019-06-01T22:28:59.835Z,11.70
2019-06-01T22:31:53.896Z,13.30
2019-06-01T22:34:26.857Z,10.20
2019-06-01T22:40:48.506Z,13.65
2019-06-01T22:44:03.682Z,12.58
2019-06-01T22:47:14.564Z,10.98
2019-06-01T22:49:46.252Z,11.83
2019-06-01T22:53:12.576Z,12.00
2019-06-01T22:56:04.144Z,10.40
2019-06-01T22:58:32.832Z,12.88
2019-06-01T23:01:01.657Z,9.98
2019-06-01T23:03:36.210Z,12.05
2019-06-01T23:06:10.737Z,9.93
2019-06-01T23:08:57.739Z,9.93
2019-06-01T23:11:32.554Z,15.50
2019-06-01T23:14:07.652Z,12.80
2019-06-01T23:16:39.308Z,11.93
2019-06-01T23:19:08.915Z,11.55
2019-06-01T23:21:43.130Z,10.93
2019-06-01T23:25:00.900Z,11.73
2019-06-01T23:27:35.297Z,9.65
2019-06-01T23:30:47.297Z,13.65
2019-06-01T23:33:46.431Z,10.55
2019-06-01T23:36:20.941Z,14.87
2019-06-01T23:39:02.275Z,11.18
2019-06-01T23:41:33.655Z,8.93
2019-06-01T23:47:04.290Z,9.48
2019-06-01T23:49:35.997Z,9.63
2019-06-01T23:52:10.597Z,10.18
2019-06-01T23:54:43.467Z,11.75
2019-06-01T23:58:02.671Z,11.43
